Entre Rios de Minas, Brazil
Current Conditions -  °F | °C
As of 6:00 AM on Tuesday 27 Jan 2015 (Local Time) from SBBQ Reporting Station
Haze Haze  
Wind Chill: 63°   Ceiling: Unl
Heat Index: 63°   Visibility: 1.8mi
Dew Point: 61°   Wind: 2mph
Humidity: 94%   Direction: 40°NE
Pressure: 30.15"   Gusts: NA
Location:  20.67°S, 44.07°W
Report Text: SBBQ 270800Z 04002KT 3000 BR FEW003 17/16 Q1021
Loading
Personal Weather Stations






























Interactive Weather Map New forecast layout! Learn more

10-Day Weather Forecast

Advertisements
Track Severe Weather on mobile